sensor_id;sensor_type;location;lat;lon;timestamp;pressure;altitude;pressure_sealevel;temperature;humidity
49104;BME280;34915;52.926;11.116;2023-02-04T00:01:23;102587.59;;;4.22;100.00
49104;BME280;34915;52.926;11.116;2023-02-04T00:03:49;102586.75;;;4.21;100.00
49104;BME280;34915;52.926;11.116;2023-02-04T00:06:14;102595.34;;;4.29;100.00
49104;BME280;34915;52.926;11.116;2023-02-04T00:08:40;102597.13;;;4.27;100.00
49104;BME280;34915;52.926;11.116;2023-02-04T00:11:05;102607.69;;;4.24;100.00
49104;BME280;34915;52.926;11.116;2023-02-04T00:13:31;102619.78;;;4.31;100.00
49104;BME280;34915;52.926;11.116;2023-02-04T00:15:56;102625.84;;;4.36;100.00
49104;BME280;34915;52.926;11.116;2023-02-04T00:18:22;102630.47;;;4.19;100.00
49104;BME280;34915;52.926;11.116;2023-02-04T00:20:48;102646.09;;;4.25;100.00
49104;BME280;34915;52.926;11.116;2023-02-04T00:23:16;102660.84;;;4.34;100.00
49104;BME280;34915;52.926;11.116;2023-02-04T00:25:41;102663.63;;;4.23;100.00
49104;BME280;34915;52.926;11.116;2023-02-04T00:28:07;102670.66;;;4.21;100.00
49104;BME280;34915;52.926;11.116;2023-02-04T00:30:32;102672.38;;;4.22;100.00
49104;BME280;34915;52.926;11.116;2023-02-04T00:32:58;102672.38;;;4.22;100.00
49104;BME280;34915;52.926;11.116;2023-02-04T00:35:24;102686.50;;;4.12;100.00
49104;BME280;34915;52.926;11.116;2023-02-04T00:37:50;102684.88;;;4.05;100.00
49104;BME280;34915;52.926;11.116;2023-02-04T00:40:16;102694.50;;;4.03;100.00
49104;BME280;34915;52.926;11.116;2023-02-04T00:42:42;102688.41;;;4.03;100.00
49104;BME280;34915;52.926;11.116;2023-02-04T00:45:08;102709.44;;;3.98;100.00
49104;BME280;34915;52.926;11.116;2023-02-04T00:47:34;102703.47;;;3.85;100.00
49104;BME280;34915;52.926;11.116;2023-02-04T00:50:00;102706.09;;;3.85;100.00
49104;BME280;34915;52.926;11.116;2023-02-04T00:52:26;102717.63;;;3.70;100.00
49104;BME280;34915;52.926;11.116;2023-02-04T00:54:53;102727.25;;;3.70;100.00
49104;BME280;34915;52.926;11.116;2023-02-04T00:57:18;102735.97;;;3.72;100.00
49104;BME280;34915;52.926;11.116;2023-02-04T00:59:44;102742.19;;;3.65;100.00
49104;BME280;34915;52.926;11.116;2023-02-04T01:02:09;102737.78;;;3.67;100.00
49104;BME280;34915;52.926;11.116;2023-02-04T01:04:35;102748.41;;;3.55;100.00
49104;BME280;34915;52.926;11.116;2023-02-04T01:07:00;102764.16;;;3.52;100.00
49104;BME280;34915;52.926;11.116;2023-02-04T01:09:26;102771.09;;;3.56;100.00
49104;BME280;34915;52.926;11.116;2023-02-04T01:11:51;102769.34;;;3.55;100.00
49104;BME280;34915;52.926;11.116;2023-02-04T01:14:17;102783.34;;;3.51;100.00
49104;BME280;34915;52.926;11.116;2023-02-04T01:16:43;102781.66;;;3.44;100.00
49104;BME280;34915;52.926;11.116;2023-02-04T01:19:10;102781.63;;;3.53;100.00
49104;BME280;34915;52.926;11.116;2023-02-04T01:21:36;102803.34;;;3.61;100.00
49104;BME280;34915;52.926;11.116;2023-02-04T01:24:01;102800.84;;;3.49;100.00
49104;BME280;34915;52.926;11.116;2023-02-04T01:26:27;102806.22;;;3.34;100.00
49104;BME280;34915;52.926;11.116;2023-02-04T01:28:55;102825.50;;;3.27;100.00
49104;BME280;34915;52.926;11.116;2023-02-04T01:31:20;102832.50;;;3.22;100.00
49104;BME280;34915;52.926;11.116;2023-02-04T01:33:46;102836.84;;;3.25;100.00
49104;BME280;34915;52.926;11.116;2023-02-04T01:36:12;102846.50;;;3.18;100.00
49104;BME280;34915;52.926;11.116;2023-02-04T01:38:38;102846.41;;;3.30;100.00
49104;BME280;34915;52.926;11.116;2023-02-04T01:41:05;102856.91;;;3.27;100.00
49104;BME280;34915;52.926;11.116;2023-02-04T01:43:31;102860.34;;;3.32;100.00
49104;BME280;34915;52.926;11.116;2023-02-04T01:46:00;102870.81;;;3.32;100.00
49104;BME280;34915;52.926;11.116;2023-02-04T01:48:29;102872.63;;;3.27;100.00
49104;BME280;34915;52.926;11.116;2023-02-04T01:51:02;102876.13;;;3.26;100.00
49104;BME280;34915;52.926;11.116;2023-02-04T01:53:29;102876.16;;;3.20;100.00
49104;BME280;34915;52.926;11.116;2023-02-04T01:55:56;102886.72;;;3.08;100.00
49104;BME280;34915;52.926;11.116;2023-02-04T01:58:21;102887.66;;;2.95;100.00
49104;BME280;34915;52.926;11.116;2023-02-04T02:00:47;102892.06;;;2.91;100.00
49104;BME280;34915;52.926;11.116;2023-02-04T02:03:12;102891.16;;;2.94;100.00
49104;BME280;34915;52.926;11.116;2023-02-04T02:05:42;102902.53;;;2.93;100.00
49104;BME280;34915;52.926;11.116;2023-02-04T02:08:09;102919.13;;;2.90;100.00
49104;BME280;34915;52.926;11.116;2023-02-04T02:10:36;102914.75;;;2.86;100.00
49104;BME280;34915;52.926;11.116;2023-02-04T02:13:03;102926.97;;;2.87;100.00
49104;BME280;34915;52.926;11.116;2023-02-04T02:15:29;102933.88;;;3.02;100.00
49104;BME280;34915;52.926;11.116;2023-02-04T02:17:55;102935.66;;;2.94;100.00
49104;BME280;34915;52.926;11.116;2023-02-04T02:20:22;102940.00;;;2.97;100.00
49104;BME280;34915;52.926;11.116;2023-02-04T02:26:13;102945.34;;;2.78;100.00
49104;BME280;34915;52.926;11.116;2023-02-04T02:28:39;102951.47;;;2.71;100.00
49104;BME280;34915;52.926;11.116;2023-02-04T02:31:05;102967.19;;;2.65;100.00
49104;BME280;34915;52.926;11.116;2023-02-04T02:33:32;102959.38;;;2.56;100.00
49104;BME280;34915;52.926;11.116;2023-02-04T02:35:58;102966.34;;;2.51;100.00
49104;BME280;34915;52.926;11.116;2023-02-04T02:38:24;102982.94;;;2.47;100.00
49104;BME280;34915;52.926;11.116;2023-02-04T02:40:49;102987.28;;;2.48;100.00
49104;BME280;34915;52.926;11.116;2023-02-04T02:43:19;102986.44;;;2.46;100.00
49104;BME280;34915;52.926;11.116;2023-02-04T02:45:46;102988.19;;;2.44;100.00
49104;BME280;34915;52.926;11.116;2023-02-04T02:48:12;102987.31;;;2.42;100.00
49104;BME280;34915;52.926;11.116;2023-02-04T02:50:39;102996.91;;;2.40;100.00
49104;BME280;34915;52.926;11.116;2023-02-04T02:53:10;103009.97;;;2.39;100.00
49104;BME280;34915;52.926;11.116;2023-02-04T02:55:37;103010.84;;;2.36;100.00
49104;BME280;34915;52.926;11.116;2023-02-04T02:58:03;103010.84;;;2.42;100.00
49104;BME280;34915;52.926;11.116;2023-02-04T03:00:29;102997.78;;;2.26;100.00
49104;BME280;34915;52.926;11.116;2023-02-04T03:03:08;103023.06;;;2.37;100.00
49104;BME280;34915;52.926;11.116;2023-02-04T03:05:43;103027.41;;;2.38;100.00
49104;BME280;34915;52.926;11.116;2023-02-04T03:08:12;103024.78;;;2.35;100.00
49104;BME280;34915;52.926;11.116;2023-02-04T03:10:41;103047.44;;;2.39;100.00
49104;BME280;34915;52.926;11.116;2023-02-04T03:13:09;103036.16;;;2.30;100.00
49104;BME280;34915;52.926;11.116;2023-02-04T03:15:35;103045.72;;;2.20;100.00
49104;BME280;34915;52.926;11.116;2023-02-04T03:18:01;103054.44;;;2.25;100.00
49104;BME280;34915;52.926;11.116;2023-02-04T03:20:29;103066.63;;;2.29;100.00
49104;BME280;34915;52.926;11.116;2023-02-04T03:22:55;103070.13;;;2.31;100.00
49104;BME280;34915;52.926;11.116;2023-02-04T03:25:23;103077.09;;;2.29;100.00
49104;BME280;34915;52.926;11.116;2023-02-04T03:27:51;103087.53;;;2.20;100.00
49104;BME280;34915;52.926;11.116;2023-02-04T03:30:20;103091.91;;;2.00;100.00
49104;BME280;34915;52.926;11.116;2023-02-04T03:32:46;103097.97;;;1.88;100.00
49104;BME280;34915;52.926;11.116;2023-02-04T03:35:12;103104.91;;;1.83;100.00
49104;BME280;34915;52.926;11.116;2023-02-04T03:37:37;103106.66;;;1.81;100.00
49104;BME280;34915;52.926;11.116;2023-02-04T03:40:03;103104.06;;;1.91;100.00
49104;BME280;34915;52.926;11.116;2023-02-04T03:42:29;103111.91;;;1.90;100.00
49104;BME280;34915;52.926;11.116;2023-02-04T03:44:55;103121.50;;;2.02;100.00
49104;BME280;34915;52.926;11.116;2023-02-04T03:47:22;103127.63;;;2.19;100.00
49104;BME280;34915;52.926;11.116;2023-02-04T03:49:47;103137.22;;;2.16;100.00
49104;BME280;34915;52.926;11.116;2023-02-04T03:52:13;103142.44;;;2.10;100.00
49104;BME280;34915;52.926;11.116;2023-02-04T03:54:38;103146.75;;;1.97;100.00
49104;BME280;34915;52.926;11.116;2023-02-04T03:57:04;103160.69;;;1.91;100.00
49104;BME280;34915;52.926;11.116;2023-02-04T03:59:29;103160.66;;;1.82;100.00
49104;BME280;34915;52.926;11.116;2023-02-04T04:01:55;103175.44;;;1.83;100.00
49104;BME280;34915;52.926;11.116;2023-02-04T04:04:20;103180.69;;;1.81;100.00
49104;BME280;34915;52.926;11.116;2023-02-04T04:06:46;103179.81;;;1.81;100.00
49104;BME280;34915;52.926;11.116;2023-02-04T04:09:11;103185.03;;;1.75;100.00
49104;BME280;34915;52.926;11.116;2023-02-04T04:11:37;103181.50;;;1.67;100.00
49104;BME280;34915;52.926;11.116;2023-02-04T04:14:03;103189.28;;;1.56;100.00
49104;BME280;34915;52.926;11.116;2023-02-04T04:16:30;103191.84;;;1.49;100.00
49104;BME280;34915;52.926;11.116;2023-02-04T04:18:56;103207.56;;;1.55;100.00
49104;BME280;34915;52.926;11.116;2023-02-04T04:21:22;103209.34;;;1.62;100.00
49104;BME280;34915;52.926;11.116;2023-02-04T04:23:48;103218.13;;;1.79;100.00
49104;BME280;34915;52.926;11.116;2023-02-04T04:26:13;103204.97;;;1.62;100.00
49104;BME280;34915;52.926;11.116;2023-02-04T04:28:39;103219.72;;;1.50;100.00
49104;BME280;34915;52.926;11.116;2023-02-04T04:31:05;103242.31;;;1.45;100.00
49104;BME280;34915;52.926;11.116;2023-02-04T04:33:30;103244.91;;;1.41;100.00
49104;BME280;34915;52.926;11.116;2023-02-04T04:35:56;103243.97;;;1.31;100.00
49104;BME280;34915;52.926;11.116;2023-02-04T04:38:21;103263.13;;;1.35;100.00
49104;BME280;34915;52.926;11.116;2023-02-04T04:40:47;103270.09;;;1.34;100.00
49104;BME280;34915;52.926;11.116;2023-02-04T04:43:12;103287.47;;;1.32;100.00
49104;BME280;34915;52.926;11.116;2023-02-04T04:45:38;103282.22;;;1.29;100.00
49104;BME280;34915;52.926;11.116;2023-02-04T04:48:04;103296.19;;;1.31;100.00
49104;BME280;34915;52.926;11.116;2023-02-04T04:50:29;103291.00;;;1.34;100.00
49104;BME280;34915;52.926;11.116;2023-02-04T04:52:57;103297.03;;;1.30;100.00
49104;BME280;34915;52.926;11.116;2023-02-04T04:55:23;103299.63;;;1.27;100.00
49104;BME280;34915;52.926;11.116;2023-02-04T04:57:48;103306.59;;;1.25;100.00
49104;BME280;34915;52.926;11.116;2023-02-04T05:00:19;103304.81;;;1.21;100.00
49104;BME280;34915;52.926;11.116;2023-02-04T05:02:45;103311.63;;;1.07;100.00
49104;BME280;34915;52.926;11.116;2023-02-04T05:05:11;103307.28;;;1.03;100.00
49104;BME280;34915;52.926;11.116;2023-02-04T05:07:37;103320.31;;;1.00;100.00
49104;BME280;34915;52.926;11.116;2023-02-04T05:10:04;103314.16;;;0.96;100.00
49104;BME280;34915;52.926;11.116;2023-02-04T05:12:30;103315.06;;;0.98;100.00
49104;BME280;34915;52.926;11.116;2023-02-04T05:14:56;103316.72;;;0.93;100.00
49104;BME280;34915;52.926;11.116;2023-02-04T05:17:21;103325.44;;;0.92;100.00
49104;BME280;34915;52.926;11.116;2023-02-04T05:19:47;103324.50;;;0.88;100.00
49104;BME280;34915;52.926;11.116;2023-02-04T05:22:12;103328.88;;;0.88;100.00
49104;BME280;34915;52.926;11.116;2023-02-04T05:24:38;103328.84;;;0.85;100.00
49104;BME280;34915;52.926;11.116;2023-02-04T05:27:03;103328.78;;;0.79;100.00
49104;BME280;34915;52.926;11.116;2023-02-04T05:29:29;103324.38;;;0.73;100.00
49104;BME280;34915;52.926;11.116;2023-02-04T05:31:55;103325.16;;;0.65;100.00
49104;BME280;34915;52.926;11.116;2023-02-04T05:34:20;103328.59;;;0.64;100.00
49104;BME280;34915;52.926;11.116;2023-02-04T05:36:46;103334.69;;;0.63;100.00
49104;BME280;34915;52.926;11.116;2023-02-04T05:39:11;103341.63;;;0.64;100.00
49104;BME280;34915;52.926;11.116;2023-02-04T05:41:37;103340.06;;;0.79;100.00
49104;BME280;34915;52.926;11.116;2023-02-04T05:44:03;103342.69;;;0.81;100.00
49104;BME280;34915;52.926;11.116;2023-02-04T05:46:30;103358.25;;;0.72;100.00
49104;BME280;34915;52.926;11.116;2023-02-04T05:48:56;103361.66;;;0.65;100.00
49104;BME280;34915;52.926;11.116;2023-02-04T05:51:21;103352.91;;;0.60;100.00
49104;BME280;34915;52.926;11.116;2023-02-04T05:53:47;103364.19;;;0.59;100.00
49104;BME280;34915;52.926;11.116;2023-02-04T05:56:12;103364.94;;;0.49;100.00
49104;BME280;34915;52.926;11.116;2023-02-04T05:58:38;103364.03;;;0.44;100.00
49104;BME280;34915;52.926;11.116;2023-02-04T06:01:04;103380.47;;;0.40;100.00
49104;BME280;34915;52.926;11.116;2023-02-04T06:03:30;103385.63;;;0.34;100.00
49104;BME280;34915;52.926;11.116;2023-02-04T06:05:56;103390.81;;;0.34;100.00
49104;BME280;34915;52.926;11.116;2023-02-04T06:08:22;103402.13;;;0.36;100.00
49104;BME280;34915;52.926;11.116;2023-02-04T06:10:48;103408.25;;;0.38;100.00
49104;BME280;34915;52.926;11.116;2023-02-04T06:13:14;103414.38;;;0.42;100.00
49104;BME280;34915;52.926;11.116;2023-02-04T06:15:39;103405.66;;;0.38;100.00
49104;BME280;34915;52.926;11.116;2023-02-04T06:18:05;103427.34;;;0.37;100.00
49104;BME280;34915;52.926;11.116;2023-02-04T06:20:34;103431.63;;;0.31;100.00
49104;BME280;34915;52.926;11.116;2023-02-04T06:22:59;103433.31;;;0.29;100.00
49104;BME280;34915;52.926;11.116;2023-02-04T06:25:25;103437.59;;;0.22;100.00
49104;BME280;34915;52.926;11.116;2023-02-04T06:27:51;103449.66;;;0.17;100.00
49104;BME280;34915;52.926;11.116;2023-02-04T06:30:16;103453.53;;;0.46;100.00
49104;BME280;34915;52.926;11.116;2023-02-04T06:32:42;103470.88;;;0.41;100.00
49104;BME280;34915;52.926;11.116;2023-02-04T06:35:09;103477.63;;;0.30;100.00
49104;BME280;34915;52.926;11.116;2023-02-04T06:37:34;103475.81;;;0.23;100.00
49104;BME280;34915;52.926;11.116;2023-02-04T06:40:00;103475.91;;;0.29;100.00
49104;BME280;34915;52.926;11.116;2023-02-04T06:42:26;103477.59;;;0.27;100.00
49104;BME280;34915;52.926;11.116;2023-02-04T06:44:52;103479.38;;;0.28;100.00
49104;BME280;34915;52.926;11.116;2023-02-04T06:47:18;103481.94;;;0.27;100.00
49104;BME280;34915;52.926;11.116;2023-02-04T06:49:44;103477.56;;;0.24;100.00
49104;BME280;34915;52.926;11.116;2023-02-04T06:52:10;103486.25;;;0.23;100.00
49104;BME280;34915;52.926;11.116;2023-02-04T06:54:36;103496.69;;;0.23;100.00
49104;BME280;34915;52.926;11.116;2023-02-04T06:57:02;103494.88;;;0.21;100.00
49104;BME280;34915;52.926;11.116;2023-02-04T06:59:35;103499.22;;;0.22;100.00
49104;BME280;34915;52.926;11.116;2023-02-04T07:02:01;103502.72;;;0.22;100.00
49104;BME280;34915;52.926;11.116;2023-02-04T07:04:27;103508.81;;;0.24;100.00
49104;BME280;34915;52.926;11.116;2023-02-04T07:06:56;103512.41;;;0.29;100.00
49104;BME280;34915;52.926;11.116;2023-02-04T07:09:21;103519.38;;;0.33;100.00
49104;BME280;34915;52.926;11.116;2023-02-04T07:11:47;103517.69;;;0.35;100.00
49104;BME280;34915;52.926;11.116;2023-02-04T07:14:12;103520.31;;;0.35;100.00
49104;BME280;34915;52.926;11.116;2023-02-04T07:16:38;103522.88;;;0.32;100.00
49104;BME280;34915;52.926;11.116;2023-02-04T07:19:07;103519.44;;;0.36;100.00
49104;BME280;34915;52.926;11.116;2023-02-04T07:21:33;103542.03;;;0.37;100.00
49104;BME280;34915;52.926;11.116;2023-02-04T07:23:58;103548.09;;;0.36;100.00
49104;BME280;34915;52.926;11.116;2023-02-04T07:26:24;103542.81;;;0.32;100.00
49104;BME280;34915;52.926;11.116;2023-02-04T07:28:49;103554.09;;;0.29;100.00
49104;BME280;34915;52.926;11.116;2023-02-04T07:31:15;103550.63;;;0.30;100.00
49104;BME280;34915;52.926;11.116;2023-02-04T07:33:40;103557.69;;;0.37;100.00
49104;BME280;34915;52.926;11.116;2023-02-04T07:36:06;103563.81;;;0.41;100.00
49104;BME280;34915;52.926;11.116;2023-02-04T07:38:32;103566.50;;;0.45;100.00
49104;BME280;34915;52.926;11.116;2023-02-04T07:40:58;103570.03;;;0.48;100.00
49104;BME280;34915;52.926;11.116;2023-02-04T07:43:23;103561.47;;;0.57;100.00
49104;BME280;34915;52.926;11.116;2023-02-04T07:45:49;103568.47;;;0.61;100.00
49104;BME280;34915;52.926;11.116;2023-02-04T07:48:18;103579.09;;;0.73;100.00
49104;BME280;34915;52.926;11.116;2023-02-04T07:50:43;103569.59;;;0.78;100.00
49104;BME280;34915;52.926;11.116;2023-02-04T07:53:10;103574.09;;;0.88;100.00
49104;BME280;34915;52.926;11.116;2023-02-04T07:55:35;103579.19;;;0.79;100.00
49104;BME280;34915;52.926;11.116;2023-02-04T07:58:03;103584.41;;;0.79;100.00
49104;BME280;34915;52.926;11.116;2023-02-04T08:00:29;103580.03;;;0.78;100.00
49104;BME280;34915;52.926;11.116;2023-02-04T08:02:59;103586.16;;;0.83;100.00
49104;BME280;34915;52.926;11.116;2023-02-04T08:05:26;103586.22;;;0.86;100.00
49104;BME280;34915;52.926;11.116;2023-02-04T08:07:51;103589.69;;;0.85;100.00
49104;BME280;34915;52.926;11.116;2023-02-04T08:10:20;103596.72;;;0.89;100.00
49104;BME280;34915;52.926;11.116;2023-02-04T08:12:45;103602.88;;;0.94;100.00
49104;BME280;34915;52.926;11.116;2023-02-04T08:15:11;103597.66;;;0.94;100.00
49104;BME280;34915;52.926;11.116;2023-02-04T08:17:37;103612.59;;;1.03;100.00
49104;BME280;34915;52.926;11.116;2023-02-04T08:20:03;103617.84;;;1.06;100.00
49104;BME280;34915;52.926;11.116;2023-02-04T08:22:28;103615.22;;;1.06;100.00
49104;BME280;34915;52.926;11.116;2023-02-04T08:24:54;103612.63;;;1.06;100.00
49104;BME280;34915;52.926;11.116;2023-02-04T08:27:20;103625.88;;;1.23;100.00
49104;BME280;34915;52.926;11.116;2023-02-04T08:29:45;103628.66;;;1.36;100.00
49104;BME280;34915;52.926;11.116;2023-02-04T08:32:11;103630.50;;;1.43;100.00
49104;BME280;34915;52.926;11.116;2023-02-04T08:34:40;103624.56;;;1.54;100.00
49104;BME280;34915;52.926;11.116;2023-02-04T08:37:06;103627.25;;;1.62;100.00
49104;BME280;34915;52.926;11.116;2023-02-04T08:39:31;103640.47;;;1.75;100.00
49104;BME280;34915;52.926;11.116;2023-02-04T08:41:57;103638.81;;;1.83;100.00
49104;BME280;34915;52.926;11.116;2023-02-04T08:44:23;103644.09;;;1.88;100.00
49104;BME280;34915;52.926;11.116;2023-02-04T08:46:48;103641.53;;;1.94;100.00
49104;BME280;34915;52.926;11.116;2023-02-04T08:49:14;103644.25;;;2.04;100.00
49104;BME280;34915;52.926;11.116;2023-02-04T08:51:39;103631.28;;;2.14;100.00
49104;BME280;34915;52.926;11.116;2023-02-04T08:54:05;103642.88;;;2.42;100.00
49104;BME280;34915;52.926;11.116;2023-02-04T08:56:30;103637.66;;;2.44;100.00
49104;BME280;34915;52.926;11.116;2023-02-04T08:58:56;103642.06;;;2.47;100.00
49104;BME280;34915;52.926;11.116;2023-02-04T09:01:21;103643.78;;;2.48;100.00
49104;BME280;34915;52.926;11.116;2023-02-04T09:03:47;103643.78;;;2.45;100.00
49104;BME280;34915;52.926;11.116;2023-02-04T09:06:12;103643.72;;;2.39;100.00
49104;BME280;34915;52.926;11.116;2023-02-04T09:08:38;103648.97;;;2.42;100.00
49104;BME280;34915;52.926;11.116;2023-02-04T09:11:04;103656.81;;;2.42;100.00
49104;BME280;34915;52.926;11.116;2023-02-04T09:13:30;103656.19;;;2.73;100.00
49104;BME280;34915;52.926;11.116;2023-02-04T09:15:57;103658.00;;;2.77;100.00
49104;BME280;34915;52.926;11.116;2023-02-04T09:18:23;103654.50;;;2.78;100.00
49104;BME280;34915;52.926;11.116;2023-02-04T09:20:51;103645.75;;;2.76;100.00
49104;BME280;34915;52.926;11.116;2023-02-04T09:25:39;103682.53;;;2.91;100.00
49104;BME280;34915;52.926;11.116;2023-02-04T09:28:07;103672.09;;;2.93;100.00
49104;BME280;34915;52.926;11.116;2023-02-04T09:30:40;103675.63;;;3.01;100.00
49104;BME280;34915;52.926;11.116;2023-02-04T09:33:07;103675.63;;;3.04;100.00
49104;BME280;34915;52.926;11.116;2023-02-04T09:35:35;103682.63;;;3.05;100.00
49104;BME280;34915;52.926;11.116;2023-02-04T09:38:00;103686.16;;;3.13;100.00
49104;BME280;34915;52.926;11.116;2023-02-04T09:40:27;103679.22;;;3.18;100.00
49104;BME280;34915;52.926;11.116;2023-02-04T09:42:54;103695.00;;;3.30;100.00
49104;BME280;34915;52.926;11.116;2023-02-04T09:45:26;103703.75;;;3.32;100.00
49104;BME280;34915;52.926;11.116;2023-02-04T09:47:53;103696.81;;;3.37;100.00
49104;BME280;34915;52.926;11.116;2023-02-04T09:50:24;103704.66;;;3.36;100.00
49104;BME280;34915;52.926;11.116;2023-02-04T09:52:52;103712.53;;;3.40;100.00
49104;BME280;34915;52.926;11.116;2023-02-04T09:55:20;103716.06;;;3.48;100.00
49104;BME280;34915;52.926;11.116;2023-02-04T09:57:47;103709.16;;;3.62;100.00
49104;BME280;34915;52.926;11.116;2023-02-04T10:00:23;103711.78;;;3.66;97.88
49104;BME280;34915;52.926;11.116;2023-02-04T10:02:49;103711.81;;;3.71;95.64
49104;BME280;34915;52.926;11.116;2023-02-04T10:05:29;103722.31;;;3.71;96.99
49104;BME280;34915;52.926;11.116;2023-02-04T10:07:56;103701.34;;;3.78;95.14
49104;BME280;34915;52.926;11.116;2023-02-04T10:10:23;103713.63;;;3.82;96.74
49104;BME280;34915;52.926;11.116;2023-02-04T10:12:53;103718.00;;;3.90;96.57
49104;BME280;34915;52.926;11.116;2023-02-04T10:15:20;103712.75;;;3.88;95.48
49104;BME280;34915;52.926;11.116;2023-02-04T10:18:06;103717.97;;;3.85;94.11
49104;BME280;34915;52.926;11.116;2023-02-04T10:20:33;103718.06;;;3.99;96.27
49104;BME280;34915;52.926;11.116;2023-02-04T10:22:58;103718.06;;;4.02;94.33
49104;BME280;34915;52.926;11.116;2023-02-04T10:25:25;103717.16;;;3.99;92.61
49104;BME280;34915;52.926;11.116;2023-02-04T10:27:53;103719.78;;;4.03;91.66
49104;BME280;34915;52.926;11.116;2023-02-04T10:30:25;103721.59;;;4.22;87.93
49104;BME280;34915;52.926;11.116;2023-02-04T10:32:52;103719.81;;;4.12;87.97
49104;BME280;34915;52.926;11.116;2023-02-04T10:35:20;103732.09;;;4.25;91.12
49104;BME280;34915;52.926;11.116;2023-02-04T10:37:47;103730.31;;;4.12;90.45
49104;BME280;34915;52.926;11.116;2023-02-04T10:40:31;103733.00;;;4.32;87.60
49104;BME280;34915;52.926;11.116;2023-02-04T10:42:57;103733.03;;;4.48;86.90
49104;BME280;34915;52.926;11.116;2023-02-04T10:45:28;103733.91;;;4.47;85.44
49104;BME280;34915;52.926;11.116;2023-02-04T10:47:55;103735.66;;;4.54;86.12
49104;BME280;34915;52.926;11.116;2023-02-04T10:50:25;103728.66;;;4.47;84.13
49104;BME280;34915;52.926;11.116;2023-02-04T10:52:54;103726.03;;;4.47;85.99
49104;BME280;34915;52.926;11.116;2023-02-04T10:55:41;103735.63;;;4.27;85.63
49104;BME280;34915;52.926;11.116;2023-02-04T10:58:10;103725.16;;;4.45;83.50
49104;BME280;34915;52.926;11.116;2023-02-04T11:00:36;103728.66;;;4.53;84.75
49104;BME280;34915;52.926;11.116;2023-02-04T11:03:18;103718.16;;;4.47;83.73
49104;BME280;34915;52.926;11.116;2023-02-04T11:05:46;103732.16;;;4.49;84.16
49104;BME280;34915;52.926;11.116;2023-02-04T11:08:24;103734.81;;;4.58;83.71
49104;BME280;34915;52.926;11.116;2023-02-04T11:10:55;103737.44;;;4.64;84.09
49104;BME280;34915;52.926;11.116;2023-02-04T11:13:38;103730.41;;;4.60;83.02
49104;BME280;34915;52.926;11.116;2023-02-04T11:26:33;103742.69;;;4.99;81.04
49104;BME280;34915;52.926;11.116;2023-02-04T11:39:47;103745.31;;;4.95;80.75
49104;BME280;34915;52.926;11.116;2023-02-04T11:42:41;103744.44;;;4.97;80.19
49104;BME280;34915;52.926;11.116;2023-02-04T11:45:20;103731.28;;;5.18;79.13
49104;BME280;34915;52.926;11.116;2023-02-04T11:47:49;103739.16;;;5.36;79.91
49104;BME280;34915;52.926;11.116;2023-02-04T11:50:20;103733.88;;;5.42;77.68
49104;BME280;34915;52.926;11.116;2023-02-04T11:52:46;103740.91;;;5.34;79.13
49104;BME280;34915;52.926;11.116;2023-02-04T11:55:12;103744.41;;;5.24;79.66
49104;BME280;34915;52.926;11.116;2023-02-04T11:57:39;103749.69;;;5.03;77.06
49104;BME280;34915;52.926;11.116;2023-02-04T12:00:17;103741.81;;;4.81;77.78
49104;BME280;34915;52.926;11.116;2023-02-04T12:02:46;103746.16;;;4.69;79.64
49104;BME280;34915;52.926;11.116;2023-02-04T12:05:17;103751.41;;;4.54;80.42
49104;BME280;34915;52.926;11.116;2023-02-04T12:07:44;103744.44;;;4.65;79.80
49104;BME280;34915;52.926;11.116;2023-02-04T12:10:27;103744.44;;;4.68;81.40
49104;BME280;34915;52.926;11.116;2023-02-04T12:12:57;103747.06;;;4.71;81.04
49104;BME280;34915;52.926;11.116;2023-02-04T12:15:34;103756.69;;;4.72;79.53
49104;BME280;34915;52.926;11.116;2023-02-04T12:20:27;103754.94;;;4.88;80.75
49104;BME280;34915;52.926;11.116;2023-02-04T12:22:53;103747.94;;;5.04;76.81
49104;BME280;34915;52.926;11.116;2023-02-04T12:25:18;103756.72;;;4.98;81.38
49104;BME280;34915;52.926;11.116;2023-02-04T12:27:44;103761.97;;;5.04;82.12
49104;BME280;34915;52.926;11.116;2023-02-04T12:30:11;103761.97;;;5.04;81.12
49104;BME280;34915;52.926;11.116;2023-02-04T12:32:37;103757.56;;;5.12;79.26
49104;BME280;34915;52.926;11.116;2023-02-04T12:35:02;103762.81;;;5.20;80.87
49104;BME280;34915;52.926;11.116;2023-02-04T12:37:28;103768.97;;;5.11;76.89
49104;BME280;34915;52.926;11.116;2023-02-04T12:39:54;103772.44;;;5.37;77.27
49104;BME280;34915;52.926;11.116;2023-02-04T12:42:19;103773.34;;;5.33;78.98
49104;BME280;34915;52.926;11.116;2023-02-04T12:44:45;103778.56;;;5.26;77.60
49104;BME280;34915;52.926;11.116;2023-02-04T12:47:10;103769.84;;;5.07;77.18
49104;BME280;34915;52.926;11.116;2023-02-04T12:49:38;103779.44;;;4.92;79.65
49104;BME280;34915;52.926;11.116;2023-02-04T12:52:04;103780.31;;;4.82;81.54
49104;BME280;34915;52.926;11.116;2023-02-04T12:54:30;103792.56;;;4.74;80.24
49104;BME280;34915;52.926;11.116;2023-02-04T12:56:55;103792.56;;;4.68;77.35
49104;BME280;34915;52.926;11.116;2023-02-04T12:59:24;103791.72;;;4.68;76.98
49104;BME280;34915;52.926;11.116;2023-02-04T13:01:50;103789.94;;;4.73;76.27
49104;BME280;34915;52.926;11.116;2023-02-04T13:04:19;103787.38;;;5.07;75.83
49104;BME280;34915;52.926;11.116;2023-02-04T13:06:44;103789.97;;;5.29;74.84
49104;BME280;34915;52.926;11.116;2023-02-04T13:09:10;103789.97;;;5.26;77.23
49104;BME280;34915;52.926;11.116;2023-02-04T13:11:38;103796.97;;;5.42;73.76